Time;durP1;ratioP1;P1;durP2;ratioP2;P2;SDS_P1;SDS_P2;PMS_P1;PMS_P2;Temp;Humidity;BMP_temperature;BMP_pressure;BME280_temperature;BME280_humidity;BME280_pressure;Samples;Min_cycle;Max_cycle;Signal;HPM_P1;HPM_P2
2024/04/05 00:01:03;;;;;;;12.97;4.03;;;12.00;1.00;;;;;;5055425;28;20222;-81
2024/04/05 00:03:30;;;;;;;14.73;3.90;;;11.90;1.00;;;;;;5054125;28;20223;-82
2024/04/05 00:05:56;;;;;;;15.27;3.80;;;11.90;1.00;;;;;;5057472;28;20237;-81
2024/04/05 00:08:25;;;;;;;19.03;4.33;;;11.80;1.00;;;;;;5054097;28;20203;-80
2024/04/05 00:10:51;;;;;;;16.33;4.67;;;11.80;1.00;;;;;;5055741;28;20305;-82
2024/04/05 00:13:21;;;;;;;13.33;3.87;;;11.70;46.50;;;;;;5057707;28;20199;-82
2024/04/05 00:15:47;;;;;;;17.20;3.83;;;11.70;46.80;;;;;;5052965;28;20268;-82
2024/04/05 00:18:15;;;;;;;12.20;3.87;;;11.60;99.90;;;;;;5055165;28;20207;-81
2024/04/05 00:20:41;;;;;;;13.40;3.50;;;11.60;99.90;;;;;;5052482;28;20203;-82
2024/04/05 00:23:08;;;;;;;18.10;5.37;;;11.70;1.00;;;;;;5056893;28;20544;-81
2024/04/05 00:25:34;;;;;;;17.10;4.37;;;11.60;26.40;;;;;;5053150;28;20224;-81
2024/04/05 00:28:01;;;;;;;10.57;3.10;;;11.50;99.90;;;;;;5058893;28;20191;-83
2024/04/05 00:30:28;;;;;;;14.57;4.00;;;11.50;99.90;;;;;;5057767;28;20215;-81
2024/04/05 00:32:55;;;;;;;14.37;3.67;;;11.50;99.90;;;;;;5051738;28;20231;-81
2024/04/05 00:35:21;;;;;;;12.10;3.10;;;11.40;99.90;;;;;;5056587;28;20230;-81
2024/04/05 00:37:48;;;;;;;10.57;2.87;;;11.30;99.90;;;;;;5050980;28;20206;-82
2024/04/05 00:40:14;;;;;;;12.47;3.63;;;11.30;99.90;;;;;;5057539;28;20207;-82
2024/04/05 00:42:41;;;;;;;12.57;3.50;;;11.30;99.90;;;;;;5059505;28;20232;-82
2024/04/05 00:45:08;;;;;;;18.37;3.63;;;11.20;99.90;;;;;;5059008;28;20253;-81
2024/04/05 00:47:37;;;;;;;11.50;3.27;;;11.20;99.90;;;;;;5051760;28;20230;-81
2024/04/05 00:50:05;;;;;;;12.37;2.83;;;11.10;99.90;;;;;;5054514;28;20211;-81
2024/04/05 00:52:32;;;;;;;13.10;3.00;;;11.00;99.90;;;;;;5057959;28;20219;-82
2024/04/05 00:54:59;;;;;;;10.93;3.00;;;11.00;1.00;;;;;;5054053;28;20256;-82
2024/04/05 00:57:26;;;;;;;12.67;2.97;;;11.00;1.00;;;;;;5058364;28;20199;-82
2024/04/05 00:59:53;;;;;;;13.43;3.30;;;11.00;99.90;;;;;;5054402;28;20673;-82
2024/04/05 01:02:21;;;;;;;12.43;3.23;;;11.00;99.90;;;;;;5044898;28;20208;-81
2024/04/05 01:04:48;;;;;;;14.43;3.60;;;10.90;99.90;;;;;;5057987;28;20579;-82
2024/04/05 01:07:15;;;;;;;20.70;3.73;;;10.90;99.90;;;;;;5051957;28;20689;-82
2024/04/05 01:09:41;;;;;;;13.37;2.93;;;10.90;99.90;;;;;;5053556;28;20304;-83
2024/04/05 01:12:08;;;;;;;12.60;3.30;;;10.80;99.90;;;;;;5057042;28;20282;-84
2024/04/05 01:14:34;;;;;;;16.03;3.20;;;10.80;99.90;;;;;;5052291;28;20623;-83
2024/04/05 01:17:02;;;;;;;10.27;3.90;;;10.90;99.90;;;;;;5051508;28;20211;-82
2024/04/05 01:19:30;;;;;;;16.83;3.73;;;10.90;68.90;;;;;;5053094;28;20198;-82
2024/04/05 01:22:00;;;;;;;10.67;2.50;;;10.80;78.60;;;;;;5051378;28;20207;-83
2024/04/05 01:24:27;;;;;;;14.97;3.20;;;10.80;99.90;;;;;;5053530;28;20206;-83
2024/04/05 01:26:54;;;;;;;11.23;2.83;;;10.80;99.90;;;;;;5049197;28;20223;-82
2024/04/05 01:29:20;;;;;;;15.47;2.80;;;10.70;99.90;;;;;;5055426;28;20545;-84
2024/04/05 01:31:47;;;;;;;14.97;2.90;;;10.70;67.00;;;;;;5048827;28;20281;-83
2024/04/05 01:34:14;;;;;;;18.23;2.80;;;10.80;1.00;;;;;;5055515;28;20215;-83
2024/04/05 01:36:41;;;;;;;13.13;4.30;;;10.70;1.00;;;;;;5056297;28;20723;-82
2024/04/05 01:39:07;;;;;;;22.27;3.80;;;10.70;1.00;;;;;;5055457;28;20206;-83
2024/04/05 01:41:37;;;;;;;16.40;2.73;;;10.70;1.00;;;;;;5054772;28;20203;-83
2024/04/05 01:44:03;;;;;;;9.87;3.10;;;10.70;1.00;;;;;;5041636;28;20214;-83
2024/04/05 01:46:30;;;;;;;14.30;3.13;;;10.80;1.00;;;;;;5045712;28;20301;-83
2024/04/05 01:48:56;;;;;;;12.93;3.17;;;10.80;1.00;;;;;;5048153;28;20203;-83
2024/04/05 01:51:23;;;;;;;10.63;2.87;;;10.80;1.00;;;;;;5050322;28;20230;-83
2024/04/05 01:53:49;;;;;;;10.40;2.60;;;10.70;1.00;;;;;;5048452;28;20195;-83
2024/04/05 01:56:16;;;;;;;13.03;2.40;;;10.70;1.00;;;;;;5052033;28;20219;-82
2024/04/05 01:58:44;;;;;;;12.53;3.07;;;10.50;1.00;;;;;;5041765;28;20241;-84
2024/04/05 02:01:11;;;;;;;13.97;3.47;;;10.40;1.00;;;;;;5051684;28;20282;-82
2024/04/05 02:03:37;;;;;;;12.73;3.33;;;10.40;1.00;;;;;;5053218;28;20234;-80
2024/04/05 02:06:12;;;;;;;11.00;2.23;;;10.40;1.00;;;;;;5048316;28;20274;-82
2024/04/05 02:08:38;;;;;;;13.10;2.60;;;10.40;1.00;;;;;;5049539;28;20198;-84
2024/04/05 02:11:05;;;;;;;10.10;3.07;;;10.40;1.00;;;;;;5047147;28;20242;-82
2024/04/05 02:13:31;;;;;;;13.67;3.90;;;10.30;1.00;;;;;;5047312;28;20211;-82
2024/04/05 02:15:59;;;;;;;13.10;2.73;;;10.40;1.00;;;;;;5050548;28;20230;-82
2024/04/05 02:18:25;;;;;;;16.00;2.87;;;10.40;1.00;;;;;;5050167;28;20625;-83
2024/04/05 02:20:54;;;;;;;9.70;2.90;;;10.40;1.00;;;;;;5054474;28;20198;-82
2024/04/05 02:23:20;;;;;;;14.57;2.77;;;10.40;1.00;;;;;;5055137;28;20257;-83
2024/04/05 02:25:47;;;;;;;7.83;3.10;;;10.50;1.00;;;;;;5055295;28;20216;-83
2024/04/05 02:28:13;;;;;;;18.10;3.00;;;10.40;1.00;;;;;;5055806;28;20199;-83
2024/04/05 02:30:40;;;;;;;12.23;3.00;;;10.40;1.00;;;;;;5049599;28;20276;-83
2024/04/05 02:33:07;;;;;;;17.60;2.77;;;10.40;1.00;;;;;;5054046;28;20662;-83
2024/04/05 02:35:34;;;;;;;11.57;2.33;;;10.50;1.00;;;;;;5048408;28;20223;-83
2024/04/05 02:38:01;;;;;;;15.27;2.80;;;10.50;1.00;;;;;;5048665;28;20221;-83
2024/04/05 02:40:28;;;;;;;15.77;3.93;;;10.40;1.00;;;;;;5049028;28;20260;-83
2024/04/05 02:42:54;;;;;;;12.40;2.70;;;10.50;1.00;;;;;;5045226;28;20227;-82
2024/04/05 02:45:21;;;;;;;9.83;2.67;;;10.50;1.00;;;;;;5049048;28;20603;-83
2024/04/05 02:47:46;;;;;;;11.40;2.77;;;10.60;1.00;;;;;;5047356;28;20207;-82
2024/04/05 02:50:15;;;;;;;10.70;2.50;;;10.50;1.00;;;;;;5049693;28;20199;-83
2024/04/05 02:52:41;;;;;;;11.73;2.80;;;10.50;1.00;;;;;;5053347;28;20222;-83
2024/04/05 02:55:08;;;;;;;9.53;2.43;;;10.30;1.00;;;;;;5051934;28;20218;-83
2024/04/05 02:57:34;;;;;;;14.67;3.10;;;10.20;1.00;;;;;;5049234;28;20264;-83
2024/04/05 03:00:01;;;;;;;10.70;2.70;;;10.20;1.00;;;;;;5047399;28;20206;-82
2024/04/05 03:02:27;;;;;;;16.77;3.20;;;10.10;1.00;;;;;;5053359;28;20194;-83
2024/04/05 03:04:54;;;;;;;15.10;2.90;;;10.10;1.00;;;;;;5047299;28;20205;-82
2024/04/05 03:07:21;;;;;;;12.63;2.93;;;10.20;1.00;;;;;;5051383;28;20218;-82
2024/04/05 03:09:48;;;;;;;14.10;2.70;;;10.00;1.00;;;;;;5051431;28;20561;-82
2024/04/05 03:12:14;;;;;;;14.90;2.70;;;10.00;99.90;;;;;;5055027;28;20255;-84
2024/04/05 03:14:41;;;;;;;16.27;3.80;;;9.90;99.90;;;;;;5053900;28;20195;-84
2024/04/05 03:17:07;;;;;;;13.00;3.27;;;10.00;99.90;;;;;;5056467;28;20229;-83
2024/04/05 03:19:34;;;;;;;15.73;5.30;;;10.10;1.00;;;;;;5044486;28;20603;-83
2024/04/05 03:22:00;;;;;;;14.40;3.30;;;10.10;1.00;;;;;;5046623;28;20250;-85
2024/04/05 03:24:28;;;;;;;9.23;2.30;;;10.00;53.00;;;;;;5052097;28;20192;-82
2024/04/05 03:26:54;;;;;;;12.83;2.60;;;9.90;86.00;;;;;;5055610;28;20268;-83
2024/04/05 03:29:21;;;;;;;15.57;3.43;;;10.00;99.90;;;;;;5050857;28;20202;-80
2024/04/05 03:31:49;;;;;;;10.87;3.00;;;10.10;1.00;;;;;;5043783;28;20270;-81
2024/04/05 03:34:17;;;;;;;13.20;2.57;;;10.20;1.00;;;;;;5055441;28;20202;-82
2024/04/05 03:36:43;;;;;;;9.80;3.23;;;10.00;1.00;;;;;;5052564;28;20269;-81
2024/04/05 03:39:10;;;;;;;15.80;2.90;;;10.20;1.00;;;;;;5044963;28;20199;-81
2024/04/05 03:41:39;;;;;;;15.77;2.93;;;10.20;1.00;;;;;;5050281;28;20687;-82
2024/04/05 03:44:05;;;;;;;11.83;3.33;;;10.30;1.00;;;;;;5052374;28;20646;-82
2024/04/05 03:46:35;;;;;;;14.13;3.10;;;10.50;1.00;;;;;;5058628;28;20227;-80
2024/04/05 03:49:02;;;;;;;11.80;2.60;;;10.50;1.00;;;;;;5047520;28;20199;-83
2024/04/05 03:51:29;;;;;;;12.87;3.27;;;10.50;1.00;;;;;;5048668;28;20199;-80
2024/04/05 03:53:56;;;;;;;13.43;3.17;;;10.60;1.00;;;;;;5044337;28;20297;-82
2024/04/05 03:56:22;;;;;;;14.20;3.53;;;10.60;1.00;;;;;;5058150;28;20273;-79
2024/04/05 03:58:51;;;;;;;12.20;3.00;;;10.80;1.00;;;;;;5059023;28;20194;-82
2024/04/05 04:01:17;;;;;;;18.07;4.87;;;10.80;1.00;;;;;;5056959;28;20214;-81
2024/04/05 04:03:44;;;;;;;13.17;2.47;;;10.90;1.00;;;;;;5057776;28;20206;-82
2024/04/05 04:06:10;;;;;;;13.20;3.13;;;11.10;1.00;;;;;;5054194;28;20712;-82
2024/04/05 04:08:37;;;;;;;13.40;2.93;;;11.00;1.00;;;;;;5054947;28;20214;-84
2024/04/05 04:11:04;;;;;;;13.67;2.93;;;10.90;1.00;;;;;;5057858;28;20657;-81
2024/04/05 04:13:31;;;;;;;14.93;2.80;;;11.00;1.00;;;;;;5048625;28;20222;-80
2024/04/05 04:15:59;;;;;;;15.83;3.63;;;11.10;1.00;;;;;;5057153;28;20249;-79
2024/04/05 04:18:26;;;;;;;12.10;2.83;;;11.20;1.00;;;;;;5052442;28;20199;-80
2024/04/05 04:20:54;;;;;;;9.97;2.70;;;11.10;1.00;;;;;;5052207;28;20217;-79
2024/04/05 04:23:21;;;;;;;11.87;3.83;;;11.10;1.00;;;;;;5050379;28;20199;-80
2024/04/05 04:25:47;;;;;;;8.87;2.77;;;11.10;1.00;;;;;;5056089;28;20701;-79
2024/04/05 04:28:14;;;;;;;9.70;2.37;;;11.20;1.00;;;;;;5042324;28;20199;-79
2024/04/05 04:30:41;;;;;;;11.67;2.83;;;11.10;1.00;;;;;;5060235;28;20253;-80
2024/04/05 04:33:12;;;;;;;10.50;2.57;;;11.20;1.00;;;;;;5041118;28;20679;-80
2024/04/05 04:35:39;;;;;;;9.40;2.90;;;11.10;1.00;;;;;;5052957;28;20257;-81
2024/04/05 04:38:06;;;;;;;13.13;2.80;;;11.20;1.00;;;;;;5042126;28;20586;-80
2024/04/05 04:40:32;;;;;;;11.30;2.90;;;11.20;1.00;;;;;;5049203;28;20294;-80
2024/04/05 04:42:59;;;;;;;12.77;2.83;;;11.30;1.00;;;;;;5050650;28;20234;-81
2024/04/05 04:45:25;;;;;;;11.83;2.50;;;11.30;1.00;;;;;;5042839;28;20740;-81
2024/04/05 04:47:52;;;;;;;7.83;2.50;;;11.30;1.00;;;;;;5042673;28;20291;-80
2024/04/05 04:50:19;;;;;;;12.77;2.83;;;11.20;1.00;;;;;;5052080;28;20620;-80
2024/04/05 04:52:46;;;;;;;15.97;3.27;;;11.20;1.00;;;;;;5055060;28;20329;-80
2024/04/05 04:55:12;;;;;;;14.50;2.87;;;11.20;1.00;;;;;;5047571;28;20251;-82
2024/04/05 04:57:39;;;;;;;13.40;3.13;;;11.20;1.00;;;;;;5047139;28;20203;-80
2024/04/05 05:00:07;;;;;;;15.03;2.67;;;11.20;1.00;;;;;;5044316;28;20199;-81
2024/04/05 05:02:34;;;;;;;10.80;2.97;;;11.10;1.00;;;;;;5044782;28;20199;-80
2024/04/05 05:05:00;;;;;;;9.60;2.57;;;11.20;1.00;;;;;;5055384;28;20207;-81
2024/04/05 05:07:28;;;;;;;15.33;3.70;;;11.40;1.00;;;;;;5055393;28;20568;-80
2024/04/05 05:09:54;;;;;;;9.13;2.43;;;11.40;1.00;;;;;;5053804;28;20214;-80
2024/04/05 05:12:21;;;;;;;8.80;2.73;;;11.30;1.00;;;;;;5054773;28;20227;-81
2024/04/05 05:14:47;;;;;;;14.67;3.27;;;11.40;1.00;;;;;;5050814;28;20214;-80
2024/04/05 05:17:14;;;;;;;13.50;3.30;;;11.40;99.90;;;;;;5051462;28;20226;-80
2024/04/05 05:19:40;;;;;;;10.47;2.80;;;11.30;1.00;;;;;;5055415;28;20241;-80
2024/04/05 05:22:07;;;;;;;13.23;2.90;;;11.30;1.00;;;;;;5058133;28;20813;-82
2024/04/05 05:24:34;;;;;;;11.27;2.90;;;11.20;1.00;;;;;;5053372;28;20234;-80
2024/04/05 05:27:01;;;;;;;9.50;2.77;;;11.30;1.00;;;;;;5052786;28;20218;-80
2024/04/05 05:29:30;;;;;;;10.80;3.17;;;11.30;1.00;;;;;;5046629;28;20245;-80
2024/04/05 05:31:57;;;;;;;12.97;2.23;;;11.20;1.00;;;;;;5053884;28;20234;-81
2024/04/05 05:34:23;;;;;;;9.10;2.37;;;11.40;1.00;;;;;;5055570;28;20661;-80
2024/04/05 05:36:50;;;;;;;11.30;2.90;;;11.40;1.00;;;;;;5048641;28;20230;-80
2024/04/05 05:39:16;;;;;;;9.47;2.77;;;11.50;1.00;;;;;;5055296;28;20199;-81
2024/04/05 05:41:44;;;;;;;7.00;2.20;;;11.50;1.00;;;;;;5042473;28;20211;-79
2024/04/05 05:44:11;;;;;;;9.50;2.73;;;11.60;1.00;;;;;;5042871;28;20257;-82
2024/04/05 05:46:37;;;;;;;7.90;2.20;;;11.60;1.00;;;;;;5050878;28;20788;-83
2024/04/05 05:49:03;;;;;;;10.63;2.60;;;11.70;1.00;;;;;;5039335;28;20227;-80
2024/04/05 05:51:30;;;;;;;8.07;2.10;;;11.80;1.00;;;;;;5046145;28;20210;-80
2024/04/05 05:53:56;;;;;;;8.13;2.13;;;11.80;1.00;;;;;;5046576;28;20254;-79
2024/04/05 05:56:23;;;;;;;7.00;2.20;;;11.90;1.00;;;;;;5042213;28;20620;-81
2024/04/05 05:58:51;;;;;;;9.73;2.63;;;11.80;1.00;;;;;;5053497;28;20223;-81
2024/04/05 06:01:18;;;;;;;9.57;3.23;;;11.90;1.00;;;;;;5050952;28;20221;-81
2024/04/05 06:03:44;;;;;;;7.70;2.20;;;11.90;1.00;;;;;;5046845;28;20196;-83
2024/04/05 06:06:11;;;;;;;10.33;2.53;;;12.00;1.00;;;;;;5054681;28;20222;-80
2024/04/05 06:08:40;;;;;;;8.40;2.50;;;12.10;1.00;;;;;;5045003;28;20649;-80
2024/04/05 06:11:07;;;;;;;7.97;2.43;;;12.10;1.00;;;;;;5053447;28;20199;-82
2024/04/05 06:13:33;;;;;;;8.43;2.17;;;12.10;1.00;;;;;;5052784;28;20240;-80
2024/04/05 06:16:01;;;;;;;6.87;1.97;;;12.20;1.00;;;;;;5046611;28;20218;-81
2024/04/05 06:18:28;;;;;;;7.07;1.90;;;12.20;1.00;;;;;;5053987;28;20257;-80
2024/04/05 06:20:56;;;;;;;8.43;2.60;;;12.30;1.00;;;;;;5047045;28;20226;-80
2024/04/05 06:23:22;;;;;;;9.67;2.80;;;12.30;1.00;;;;;;5054580;28;20207;-80
2024/04/05 06:25:55;;;;;;;8.57;1.97;;;12.30;11.70;;;;;;5052040;28;20226;-81
2024/04/05 06:28:21;;;;;;;7.23;2.57;;;12.30;44.80;;;;;;5042977;28;20207;-82
2024/04/05 06:30:48;;;;;;;8.07;2.23;;;12.40;1.00;;;;;;5050166;28;20677;-81
2024/04/05 06:33:15;;;;;;;9.00;3.00;;;12.50;1.00;;;;;;5051495;28;20222;-80
2024/04/05 06:35:42;;;;;;;9.07;2.57;;;12.50;1.00;;;;;;5047264;28;20222;-82
2024/04/05 06:38:08;;;;;;;6.80;2.30;;;12.60;1.00;;;;;;5051253;28;20210;-80
2024/04/05 06:40:35;;;;;;;8.37;2.60;;;12.60;1.00;;;;;;5049364;28;20576;-80
2024/04/05 06:43:01;;;;;;;8.17;2.70;;;12.70;1.00;;;;;;5049891;28;20234;-80
2024/04/05 06:45:28;;;;;;;10.60;2.83;;;12.70;1.00;;;;;;5049708;28;20223;-80
2024/04/05 06:47:55;;;;;;;7.53;2.40;;;12.90;1.00;;;;;;5045896;28;20230;-80
2024/04/05 06:50:24;;;;;;;6.63;2.27;;;12.90;1.00;;;;;;5050161;28;20631;-80
2024/04/05 06:52:49;;;;;;;5.17;2.17;;;13.00;1.00;;;;;;5049924;28;20750;-80
2024/04/05 06:55:19;;;;;;;7.13;2.30;;;13.00;1.00;;;;;;5048760;28;20202;-80
2024/04/05 06:57:45;;;;;;;7.67;2.50;;;13.10;1.00;;;;;;5051181;28;20195;-81
2024/04/05 07:00:14;;;;;;;7.60;2.37;;;13.20;1.00;;;;;;5047698;28;20192;-80
2024/04/05 07:02:40;;;;;;;9.93;2.50;;;13.30;1.00;;;;;;5047570;28;20357;-82
2024/04/05 07:05:08;;;;;;;10.20;2.70;;;13.30;1.00;;;;;;5051188;28;20315;-80
2024/04/05 07:07:36;;;;;;;10.83;3.10;;;13.30;1.00;;;;;;5038995;28;20200;-80
2024/04/05 07:10:03;;;;;;;14.60;2.50;;;13.40;1.00;;;;;;5049902;28;20631;-81
2024/04/05 07:12:29;;;;;;;11.20;2.80;;;13.50;1.00;;;;;;5044401;28;20272;-81
2024/04/05 07:14:57;;;;;;;7.43;2.77;;;13.60;1.00;;;;;;5048790;28;20613;-82
2024/04/05 07:17:23;;;;;;;6.43;2.23;;;13.70;99.90;;;;;;5055596;28;20222;-82
2024/04/05 07:19:50;;;;;;;7.77;2.30;;;13.80;99.90;;;;;;5054941;28;20257;-81
2024/04/05 07:22:16;;;;;;;14.10;5.60;;;13.80;99.90;;;;;;5055327;28;20672;-81
2024/04/05 07:24:45;;;;;;;10.30;3.80;;;13.80;99.90;;;;;;5058225;28;20206;-81
2024/04/05 07:27:11;;;;;;;12.97;2.73;;;13.80;99.90;;;;;;5056120;28;20219;-81
2024/04/05 07:29:38;;;;;;;8.30;2.47;;;13.70;99.90;;;;;;5054665;28;20195;-81
2024/04/05 07:32:05;;;;;;;8.23;2.43;;;13.60;99.90;;;;;;5047657;28;20222;-81
2024/04/05 07:34:34;;;;;;;7.67;2.77;;;13.70;1.00;;;;;;5057594;28;20640;-81
2024/04/05 07:37:00;;;;;;;10.80;2.63;;;13.60;1.00;;;;;;5045566;28;20232;-81
2024/04/05 07:39:27;;;;;;;6.63;2.40;;;13.60;1.00;;;;;;5058403;28;20665;-81
2024/04/05 07:41:54;;;;;;;6.07;2.17;;;13.60;1.00;;;;;;5058368;28;20199;-81
2024/04/05 07:44:22;;;;;;;7.90;2.47;;;13.60;1.00;;;;;;5058059;28;20199;-81
2024/04/05 07:46:48;;;;;;;9.70;2.60;;;13.60;1.00;;;;;;5054469;28;20215;-83
2024/04/05 07:49:15;;;;;;;13.03;3.03;;;13.60;1.00;;;;;;5057528;28;20194;-82
2024/04/05 07:51:40;;;;;;;7.30;2.73;;;13.50;1.00;;;;;;5044233;28;20214;-81
2024/04/05 07:54:08;;;;;;;6.03;1.87;;;13.50;1.00;;;;;;5052925;28;20685;-82
2024/04/05 07:56:34;;;;;;;9.97;2.27;;;13.50;1.00;;;;;;5058529;28;20218;-82
2024/04/05 07:59:03;;;;;;;10.27;2.30;;;13.50;1.00;;;;;;5051496;28;20281;-82
2024/04/05 08:01:28;;;;;;;7.10;2.30;;;13.50;1.00;;;;;;5047128;28;20244;-83
2024/04/05 08:03:55;;;;;;;7.20;2.50;;;13.50;30.30;;;;;;5049656;28;20191;-82
2024/04/05 08:06:21;;;;;;;9.30;2.10;;;13.60;54.60;;;;;;5055723;28;20239;-81
2024/04/05 08:08:48;;;;;;;4.57;2.40;;;13.60;99.90;;;;;;5047993;28;20203;-82
2024/04/05 08:11:14;;;;;;;6.13;2.27;;;13.70;99.90;;;;;;5058917;28;20207;-82
2024/04/05 08:13:41;;;;;;;5.43;2.20;;;13.80;99.90;;;;;;5057390;28;20280;-82
2024/04/05 08:16:09;;;;;;;5.23;1.80;;;13.90;99.90;;;;;;5052863;28;20242;-80
2024/04/05 08:18:36;;;;;;;7.63;2.43;;;13.90;51.90;;;;;;5054790;28;20206;-81
2024/04/05 08:21:05;;;;;;;4.47;2.37;;;13.90;1.00;;;;;;5052896;28;20199;-82
2024/04/05 08:23:33;;;;;;;6.83;2.20;;;14.00;54.70;;;;;;5047625;28;20223;-81
2024/04/05 08:26:00;;;;;;;5.53;2.43;;;14.20;1.00;;;;;;5058020;28;20245;-82
2024/04/05 08:28:26;;;;;;;7.13;1.97;;;14.30;1.00;;;;;;5058062;28;20199;-81
2024/04/05 08:30:53;;;;;;;8.33;2.60;;;14.40;1.00;;;;;;5051350;28;20618;-82
2024/04/05 08:33:21;;;;;;;11.23;2.47;;;14.40;1.00;;;;;;5050700;28;20227;-82
2024/04/05 08:35:53;;;;;;;5.17;2.23;;;14.30;1.00;;;;;;5053425;28;20226;-82
2024/04/05 08:38:20;;;;;;;9.07;2.43;;;14.40;1.00;;;;;;5059115;28;20199;-83
2024/04/05 08:40:47;;;;;;;6.03;2.20;;;14.40;1.00;;;;;;5058584;28;20219;-82
2024/04/05 08:43:16;;;;;;;6.85;2.30;;;14.20;1.00;;;;;;5058361;28;20198;-81
2024/04/05 08:45:44;;;;;;;7.87;2.30;;;14.40;1.00;;;;;;5039320;28;20268;-82
2024/04/05 08:48:12;;;;;;;7.70;2.40;;;14.30;1.00;;;;;;5053209;28;20230;-83
2024/04/05 08:50:39;;;;;;;5.37;2.23;;;14.40;1.00;;;;;;5047449;28;20223;-83
2024/04/05 08:53:08;;;;;;;8.57;3.03;;;14.60;5.00;;;;;;5055805;28;20222;-82
2024/04/05 08:55:35;;;;;;;6.73;2.27;;;14.80;1.00;;;;;;5042512;28;20218;-82
2024/04/05 08:58:02;;;;;;;6.95;2.65;;;15.10;1.00;;;;;;5058767;28;20229;-81
2024/04/05 09:00:28;;;;;;;5.47;2.10;;;15.50;1.00;;;;;;5058059;28;20212;-82
2024/04/05 09:02:56;;;;;;;10.52;2.97;;;15.90;1.00;;;;;;5051881;28;20199;-82
2024/04/05 09:05:23;;;;;;;6.43;2.20;;;15.80;99.90;;;;;;5055049;28;20250;-84
2024/04/05 09:08:02;;;;;;;4.80;2.30;;;16.20;1.00;;;;;;5045115;28;20638;-82
2024/04/05 09:10:28;;;;;;;4.85;1.85;;;16.30;1.00;;;;;;5053805;28;20210;-81
2024/04/05 09:12:55;;;;;;;4.45;1.48;;;16.60;1.00;;;;;;5058179;28;20222;-82
2024/04/05 09:15:24;;;;;;;7.72;2.25;;;16.70;1.00;;;;;;5043856;28;20235;-82
2024/04/05 09:17:51;;;;;;;5.32;2.50;;;16.90;1.00;;;;;;5051010;28;20617;-82
2024/04/05 09:20:19;;;;;;;6.60;1.88;;;17.20;1.00;;;;;;5045755;28;20658;-82
2024/04/05 09:22:48;;;;;;;5.95;2.20;;;17.70;99.90;;;;;;5053685;28;20187;-81
2024/04/05 09:25:16;;;;;;;6.13;1.90;;;17.60;99.90;;;;;;5054711;28;20207;-82
2024/04/05 09:27:43;;;;;;;9.10;2.08;;;17.70;99.90;;;;;;5042933;28;20645;-83
2024/04/05 09:30:10;;;;;;;7.75;2.03;;;17.50;99.90;;;;;;5054107;28;20216;-83
2024/04/05 09:32:37;;;;;;;3.85;1.67;;;17.70;99.90;;;;;;5057019;28;20227;-81
2024/04/05 09:35:08;;;;;;;2.92;1.60;;;17.80;58.60;;;;;;5055116;28;20339;-81
2024/04/05 09:37:35;;;;;;;4.25;1.85;;;18.20;18.50;;;;;;5055085;28;20638;-82
2024/04/05 09:40:04;;;;;;;3.70;1.75;;;18.30;20.30;;;;;;5050055;28;20689;-83
2024/04/05 09:42:34;;;;;;;3.67;1.52;;;18.20;1.00;;;;;;5040656;28;20621;-82
2024/04/05 09:45:01;;;;;;;5.90;1.70;;;17.90;1.00;;;;;;5041109;28;20266;-83
2024/04/05 09:47:31;;;;;;;5.65;1.88;;;17.90;1.00;;;;;;5051880;28;20218;-84
2024/04/05 09:49:58;;;;;;;4.00;1.85;;;18.10;1.00;;;;;;5054767;28;20199;-83
2024/04/05 09:52:29;;;;;;;4.47;2.00;;;18.20;1.00;;;;;;5045473;28;20246;-82
2024/04/05 09:54:59;;;;;;;6.20;2.17;;;18.50;1.00;;;;;;5057718;28;20195;-82
2024/04/05 09:57:26;;;;;;;2.58;1.42;;;18.70;1.00;;;;;;5056871;28;20230;-81
2024/04/05 09:59:55;;;;;;;4.43;1.80;;;18.50;1.00;;;;;;5056147;28;20611;-82
2024/04/05 10:02:22;;;;;;;6.90;1.83;;;18.40;1.00;;;;;;5051761;28;20286;-81
2024/04/05 10:04:49;;;;;;;10.35;5.13;;;18.10;1.00;;;;;;5051539;28;20214;-81
2024/04/05 10:07:16;;;;;;;4.00;1.80;;;18.00;1.00;;;;;;5052207;28;20233;-82
2024/04/05 10:09:43;;;;;;;3.25;1.52;;;18.00;1.00;;;;;;5049559;28;20199;-82
2024/04/05 10:12:16;;;;;;;7.93;2.13;;;17.90;1.00;;;;;;5049260;28;20227;-80
2024/04/05 10:14:54;;;;;;;4.43;1.40;;;17.90;1.00;;;;;;5053439;28;20630;-80
2024/04/05 10:17:27;;;;;;;5.38;1.90;;;17.80;1.00;;;;;;5052672;28;20756;-81
2024/04/05 10:20:05;;;;;;;3.50;1.70;;;17.60;1.00;;;;;;5055154;28;20202;-81
2024/04/05 10:22:32;;;;;;;4.95;1.65;;;17.40;1.00;;;;;;5043148;28;20680;-80
2024/04/05 10:24:58;;;;;;;3.65;1.77;;;17.50;1.00;;;;;;5055126;28;20234;-81
2024/04/05 10:27:27;;;;;;;6.03;1.75;;;17.60;1.00;;;;;;5054090;28;20226;-80
2024/04/05 10:30:02;;;;;;;4.95;1.88;;;17.60;1.00;;;;;;5052647;28;20244;-80
2024/04/05 10:32:29;;;;;;;8.57;1.95;;;17.60;1.00;;;;;;5054092;28;20209;-83
2024/04/05 10:35:05;;;;;;;5.00;1.55;;;17.60;1.00;;;;;;5048154;28;20673;-83
2024/04/05 10:37:34;;;;;;;4.25;1.63;;;17.50;1.00;;;;;;5048819;28;20811;-80
2024/04/05 10:40:06;;;;;;;4.40;1.73;;;17.40;1.00;;;;;;5051993;28;20254;-81
2024/04/05 10:42:32;;;;;;;2.88;1.48;;;17.40;1.00;;;;;;5054464;28;20198;-82
2024/04/05 10:45:00;;;;;;;3.25;1.52;;;17.40;1.00;;;;;;5053134;28;20199;-81
2024/04/05 10:47:30;;;;;;;7.60;1.90;;;17.30;1.00;;;;;;5047877;28;20302;-81
2024/04/05 10:50:00;;;;;;;4.75;1.83;;;17.40;1.00;;;;;;5057973;28;20274;-82
2024/04/05 10:52:27;;;;;;;6.75;2.08;;;17.60;1.00;;;;;;5053321;28;20206;-82
2024/04/05 10:54:53;;;;;;;5.65;1.63;;;17.60;1.00;;;;;;5057573;28;20701;-82
2024/04/05 10:57:20;;;;;;;3.67;1.98;;;17.50;1.00;;;;;;5058370;28;20241;-84
2024/04/05 10:59:48;;;;;;;3.63;1.73;;;17.50;1.00;;;;;;5057075;28;20231;-81
2024/04/05 11:02:16;;;;;;;6.38;2.28;;;17.50;1.00;;;;;;5055204;28;20262;-82
2024/04/05 11:04:42;;;;;;;4.28;1.90;;;17.50;1.00;;;;;;5057077;28;20198;-83
2024/04/05 11:07:09;;;;;;;3.50;1.60;;;17.60;1.00;;;;;;5050851;28;20223;-81
2024/04/05 11:09:35;;;;;;;4.30;1.75;;;17.70;1.00;;;;;;5055872;28;20654;-82
2024/04/05 11:12:03;;;;;;;2.83;1.60;;;17.60;1.00;;;;;;5062466;28;20194;-81
2024/04/05 11:14:29;;;;;;;3.92;1.80;;;17.60;1.00;;;;;;5051157;28;20219;-81
2024/04/05 11:17:00;;;;;;;6.13;1.48;;;17.70;1.00;;;;;;5060434;28;20272;-81
2024/04/05 11:19:28;;;;;;;4.03;1.80;;;17.90;1.00;;;;;;5058132;28;20210;-82
2024/04/05 11:22:04;;;;;;;6.55;1.90;;;17.90;1.00;;;;;;5056877;28;20204;-81
2024/04/05 11:24:30;;;;;;;3.72;1.33;;;17.90;1.00;;;;;;5041086;28;20551;-82
2024/04/05 11:26:57;;;;;;;6.53;1.40;;;17.90;1.00;;;;;;5040619;28;20274;-82
2024/04/05 11:29:23;;;;;;;5.47;1.95;;;18.00;1.00;;;;;;5059135;28;20203;-80
2024/04/05 11:31:50;;;;;;;3.65;1.85;;;18.10;1.00;;;;;;5059086;28;20214;-82
2024/04/05 11:34:16;;;;;;;5.55;1.75;;;18.10;1.00;;;;;;5042925;28;20226;-80
2024/04/05 11:36:45;;;;;;;4.40;2.10;;;18.20;1.00;;;;;;5059733;28;20218;-82
2024/04/05 11:39:14;;;;;;;6.22;1.88;;;18.30;1.00;;;;;;5059354;28;20289;-81
2024/04/05 11:41:41;;;;;;;3.17;1.83;;;18.40;1.00;;;;;;5059758;28;20280;-82
2024/04/05 11:44:07;;;;;;;7.72;1.98;;;18.50;1.00;;;;;;5052621;28;20221;-81
2024/04/05 11:46:36;;;;;;;4.57;1.85;;;18.40;1.00;;;;;;5052889;28;20228;-82
2024/04/05 11:49:02;;;;;;;6.35;1.80;;;18.30;1.00;;;;;;5047445;28;20210;-84
2024/04/05 11:51:29;;;;;;;5.13;2.47;;;18.40;1.00;;;;;;5058271;28;20234;-82
2024/04/05 11:53:57;;;;;;;4.47;1.77;;;18.30;1.00;;;;;;5057483;28;20376;-81
2024/04/05 11:56:25;;;;;;;6.28;1.60;;;18.10;1.00;;;;;;5056870;28;20686;-82
2024/04/05 11:58:51;;;;;;;5.90;1.70;;;18.00;1.00;;;;;;5054402;28;20200;-82
2024/04/05 12:01:18;;;;;;;3.20;1.88;;;18.00;1.00;;;;;;5056697;28;20313;-80
2024/04/05 12:03:44;;;;;;;4.70;1.60;;;17.90;1.00;;;;;;5048788;28;20210;-81
2024/04/05 12:06:12;;;;;;;4.63;1.52;;;17.90;1.00;;;;;;5052965;28;20282;-80
2024/04/05 12:08:38;;;;;;;3.50;1.70;;;17.90;1.00;;;;;;5056659;28;20214;-81
2024/04/05 12:11:07;;;;;;;3.88;1.73;;;17.90;1.00;;;;;;5042991;28;20661;-79
2024/04/05 12:13:33;;;;;;;2.53;1.65;;;17.90;1.00;;;;;;5049566;28;20706;-79
2024/04/05 12:16:00;;;;;;;4.07;1.65;;;17.80;1.00;;;;;;5055420;28;20211;-81
2024/04/05 12:18:26;;;;;;;4.32;1.60;;;17.70;1.00;;;;;;5055390;28;20560;-82
2024/04/05 12:20:53;;;;;;;3.38;1.80;;;17.80;1.00;;;;;;5051771;28;20229;-82
2024/04/05 12:23:21;;;;;;;6.40;2.03;;;17.80;1.00;;;;;;5050764;28;20206;-81
2024/04/05 12:25:55;;;;;;;3.10;1.63;;;17.80;1.00;;;;;;5048276;28;20281;-82
2024/04/05 12:28:23;;;;;;;2.25;1.48;;;17.70;1.00;;;;;;5056337;28;20556;-83
2024/04/05 12:30:50;;;;;;;3.72;1.80;;;17.80;1.00;;;;;;5049040;28;20247;-82
2024/04/05 12:33:17;;;;;;;4.93;2.05;;;17.90;1.00;;;;;;5057036;28;20290;-83
2024/04/05 12:35:54;;;;;;;7.53;2.38;;;18.10;1.00;;;;;;5046677;28;20219;-82
2024/04/05 12:38:20;;;;;;;4.40;2.13;;;18.20;1.00;;;;;;5065839;28;20207;-81
2024/04/05 12:40:54;;;;;;;3.28;1.90;;;18.40;1.00;;;;;;5047692;28;20202;-81
2024/04/05 12:43:20;;;;;;;5.80;1.67;;;18.60;1.00;;;;;;5046033;28;20200;-83
2024/04/05 12:45:59;;;;;;;4.25;1.73;;;18.60;1.00;;;;;;5041998;28;20219;-82
2024/04/05 12:48:26;;;;;;;6.35;2.10;;;18.70;1.00;;;;;;5042202;28;20199;-81
2024/04/05 12:50:57;;;;;;;4.55;2.17;;;19.00;1.00;;;;;;5046753;28;20203;-82